sensor_id;sensor_type;location;lat;lon;timestamp;temperature;humidity
25154;DHT22;47555;51.038;6.280;2022-10-23T00:02:04;12.40;99.90
25154;DHT22;47555;51.038;6.280;2022-10-23T00:04:29;12.30;99.90
25154;DHT22;47555;51.038;6.280;2022-10-23T00:06:55;12.30;99.90
25154;DHT22;47555;51.038;6.280;2022-10-23T00:09:23;12.20;99.90
25154;DHT22;47555;51.038;6.280;2022-10-23T00:11:49;12.20;99.90
25154;DHT22;47555;51.038;6.280;2022-10-23T00:14:18;12.20;99.90
25154;DHT22;47555;51.038;6.280;2022-10-23T00:16:44;12.20;99.90
25154;DHT22;47555;51.038;6.280;2022-10-23T00:19:09;12.20;99.90
25154;DHT22;47555;51.038;6.280;2022-10-23T00:21:35;12.20;99.90
25154;DHT22;47555;51.038;6.280;2022-10-23T00:24:01;12.20;99.90
25154;DHT22;47555;51.038;6.280;2022-10-23T00:26:27;12.20;99.90
25154;DHT22;47555;51.038;6.280;2022-10-23T00:28:53;12.20;99.90
25154;DHT22;47555;51.038;6.280;2022-10-23T00:31:20;12.20;99.90
25154;DHT22;47555;51.038;6.280;2022-10-23T00:33:47;12.20;99.90
25154;DHT22;47555;51.038;6.280;2022-10-23T00:36:14;12.30;99.90
25154;DHT22;47555;51.038;6.280;2022-10-23T00:38:40;12.20;99.90
25154;DHT22;47555;51.038;6.280;2022-10-23T00:41:07;12.20;99.90
25154;DHT22;47555;51.038;6.280;2022-10-23T00:43:52;12.30;99.90
25154;DHT22;47555;51.038;6.280;2022-10-23T00:46:18;12.30;99.90
25154;DHT22;47555;51.038;6.280;2022-10-23T00:48:44;12.30;99.90
25154;DHT22;47555;51.038;6.280;2022-10-23T00:51:09;12.30;99.90
25154;DHT22;47555;51.038;6.280;2022-10-23T00:53:35;12.30;99.90
25154;DHT22;47555;51.038;6.280;2022-10-23T00:56:01;12.30;99.90
25154;DHT22;47555;51.038;6.280;2022-10-23T00:58:27;12.20;99.90
25154;DHT22;47555;51.038;6.280;2022-10-23T01:00:54;12.20;99.90
25154;DHT22;47555;51.038;6.280;2022-10-23T01:03:24;12.20;99.90
25154;DHT22;47555;51.038;6.280;2022-10-23T01:06:25;12.20;99.90
25154;DHT22;47555;51.038;6.280;2022-10-23T01:09:02;12.20;99.90
25154;DHT22;47555;51.038;6.280;2022-10-23T01:11:40;12.30;99.90
25154;DHT22;47555;51.038;6.280;2022-10-23T01:14:12;12.20;99.90
25154;DHT22;47555;51.038;6.280;2022-10-23T01:16:52;12.20;99.90
25154;DHT22;47555;51.038;6.280;2022-10-23T01:19:36;12.20;99.90
25154;DHT22;47555;51.038;6.280;2022-10-23T01:24:56;12.10;99.90
25154;DHT22;47555;51.038;6.280;2022-10-23T01:27:24;12.10;99.90
25154;DHT22;47555;51.038;6.280;2022-10-23T01:32:28;12.10;99.90
25154;DHT22;47555;51.038;6.280;2022-10-23T01:35:01;12.10;99.90
25154;DHT22;47555;51.038;6.280;2022-10-23T01:37:41;12.10;99.90
25154;DHT22;47555;51.038;6.280;2022-10-23T01:40:13;12.10;99.90
25154;DHT22;47555;51.038;6.280;2022-10-23T01:42:46;12.10;99.90
25154;DHT22;47555;51.038;6.280;2022-10-23T01:45:23;12.20;99.90
25154;DHT22;47555;51.038;6.280;2022-10-23T01:47:50;12.20;99.90
25154;DHT22;47555;51.038;6.280;2022-10-23T01:50:22;12.20;99.90
25154;DHT22;47555;51.038;6.280;2022-10-23T01:52:49;12.20;99.90
25154;DHT22;47555;51.038;6.280;2022-10-23T01:55:15;12.20;99.90
25154;DHT22;47555;51.038;6.280;2022-10-23T01:57:43;12.20;99.90
25154;DHT22;47555;51.038;6.280;2022-10-23T02:00:16;12.30;99.90
25154;DHT22;47555;51.038;6.280;2022-10-23T02:02:42;12.20;99.90
25154;DHT22;47555;51.038;6.280;2022-10-23T02:05:24;12.30;99.90
25154;DHT22;47555;51.038;6.280;2022-10-23T02:07:51;12.30;99.90
25154;DHT22;47555;51.038;6.280;2022-10-23T02:10:18;12.30;99.90
25154;DHT22;47555;51.038;6.280;2022-10-23T02:12:55;12.30;99.90
25154;DHT22;47555;51.038;6.280;2022-10-23T02:15:29;12.40;99.90
25154;DHT22;47555;51.038;6.280;2022-10-23T02:20:49;12.40;99.90
25154;DHT22;47555;51.038;6.280;2022-10-23T02:23:28;12.50;99.90
25154;DHT22;47555;51.038;6.280;2022-10-23T02:26:03;12.50;99.90
25154;DHT22;47555;51.038;6.280;2022-10-23T02:28:37;12.50;99.90
25154;DHT22;47555;51.038;6.280;2022-10-23T02:31:04;12.50;99.90
25154;DHT22;47555;51.038;6.280;2022-10-23T02:33:34;12.60;99.90
25154;DHT22;47555;51.038;6.280;2022-10-23T02:36:01;12.60;99.90
25154;DHT22;47555;51.038;6.280;2022-10-23T02:38:33;12.70;99.90
25154;DHT22;47555;51.038;6.280;2022-10-23T02:41:18;12.70;99.90
25154;DHT22;47555;51.038;6.280;2022-10-23T02:52:17;12.80;99.90
25154;DHT22;47555;51.038;6.280;2022-10-23T02:57:59;12.80;99.90
25154;DHT22;47555;51.038;6.280;2022-10-23T03:00:30;12.90;99.90
25154;DHT22;47555;51.038;6.280;2022-10-23T03:03:12;12.90;99.90
25154;DHT22;47555;51.038;6.280;2022-10-23T03:05:43;12.90;99.90
25154;DHT22;47555;51.038;6.280;2022-10-23T03:08:10;12.90;99.90
25154;DHT22;47555;51.038;6.280;2022-10-23T03:10:36;12.90;99.90
25154;DHT22;47555;51.038;6.280;2022-10-23T03:13:02;13.00;99.90
25154;DHT22;47555;51.038;6.280;2022-10-23T03:15:28;12.90;99.90
25154;DHT22;47555;51.038;6.280;2022-10-23T03:17:54;13.00;99.90
25154;DHT22;47555;51.038;6.280;2022-10-23T03:20:19;13.00;99.90
25154;DHT22;47555;51.038;6.280;2022-10-23T03:22:45;13.00;99.90
25154;DHT22;47555;51.038;6.280;2022-10-23T03:25:10;13.00;99.90
25154;DHT22;47555;51.038;6.280;2022-10-23T03:27:36;13.00;99.90
25154;DHT22;47555;51.038;6.280;2022-10-23T03:30:02;13.00;99.90
25154;DHT22;47555;51.038;6.280;2022-10-23T03:32:29;13.00;99.90
25154;DHT22;47555;51.038;6.280;2022-10-23T03:34:54;13.00;99.90
25154;DHT22;47555;51.038;6.280;2022-10-23T03:37:20;13.00;99.90
25154;DHT22;47555;51.038;6.280;2022-10-23T03:39:46;13.00;99.90
25154;DHT22;47555;51.038;6.280;2022-10-23T03:42:11;13.10;99.90
25154;DHT22;47555;51.038;6.280;2022-10-23T03:44:37;13.10;99.90
25154;DHT22;47555;51.038;6.280;2022-10-23T03:47:02;13.10;99.90
25154;DHT22;47555;51.038;6.280;2022-10-23T03:49:28;13.10;99.90
25154;DHT22;47555;51.038;6.280;2022-10-23T03:51:54;13.10;99.90
25154;DHT22;47555;51.038;6.280;2022-10-23T03:54:32;13.10;99.90
25154;DHT22;47555;51.038;6.280;2022-10-23T03:57:07;13.10;99.90
25154;DHT22;47555;51.038;6.280;2022-10-23T03:59:33;13.10;99.90
25154;DHT22;47555;51.038;6.280;2022-10-23T04:01:58;13.20;99.90
25154;DHT22;47555;51.038;6.280;2022-10-23T04:04:24;13.20;99.90
25154;DHT22;47555;51.038;6.280;2022-10-23T04:06:50;13.20;99.90
25154;DHT22;47555;51.038;6.280;2022-10-23T04:09:15;13.20;99.90
25154;DHT22;47555;51.038;6.280;2022-10-23T04:11:41;13.20;99.90
25154;DHT22;47555;51.038;6.280;2022-10-23T04:14:06;13.20;99.90
25154;DHT22;47555;51.038;6.280;2022-10-23T04:16:32;13.10;99.90
25154;DHT22;47555;51.038;6.280;2022-10-23T04:18:59;13.20;99.90
25154;DHT22;47555;51.038;6.280;2022-10-23T04:21:29;13.20;99.90
25154;DHT22;47555;51.038;6.280;2022-10-23T04:23:55;13.20;99.90
25154;DHT22;47555;51.038;6.280;2022-10-23T04:26:20;13.20;99.90
25154;DHT22;47555;51.038;6.280;2022-10-23T04:28:49;13.20;99.90
25154;DHT22;47555;51.038;6.280;2022-10-23T04:31:14;13.20;99.90
25154;DHT22;47555;51.038;6.280;2022-10-23T04:33:40;13.20;99.90
25154;DHT22;47555;51.038;6.280;2022-10-23T04:36:06;13.20;99.90
25154;DHT22;47555;51.038;6.280;2022-10-23T04:38:32;13.30;99.90
25154;DHT22;47555;51.038;6.280;2022-10-23T04:40:57;13.30;99.90
25154;DHT22;47555;51.038;6.280;2022-10-23T04:43:23;13.30;99.90
25154;DHT22;47555;51.038;6.280;2022-10-23T04:45:48;13.30;99.90
25154;DHT22;47555;51.038;6.280;2022-10-23T04:48:15;13.30;99.90
25154;DHT22;47555;51.038;6.280;2022-10-23T04:50:42;13.30;99.90
25154;DHT22;47555;51.038;6.280;2022-10-23T04:53:09;13.30;99.90
25154;DHT22;47555;51.038;6.280;2022-10-23T04:55:37;13.30;99.90
25154;DHT22;47555;51.038;6.280;2022-10-23T04:58:02;13.30;99.90
25154;DHT22;47555;51.038;6.280;2022-10-23T05:00:28;13.30;99.90
25154;DHT22;47555;51.038;6.280;2022-10-23T05:02:55;13.30;99.90
25154;DHT22;47555;51.038;6.280;2022-10-23T05:05:20;13.20;99.90
25154;DHT22;47555;51.038;6.280;2022-10-23T05:07:47;13.20;99.90
25154;DHT22;47555;51.038;6.280;2022-10-23T05:10:16;13.20;99.90
25154;DHT22;47555;51.038;6.280;2022-10-23T05:12:42;13.20;99.90
25154;DHT22;47555;51.038;6.280;2022-10-23T05:15:08;13.10;99.90
25154;DHT22;47555;51.038;6.280;2022-10-23T05:17:35;13.10;99.90
25154;DHT22;47555;51.038;6.280;2022-10-23T05:20:04;13.10;99.90
25154;DHT22;47555;51.038;6.280;2022-10-23T05:22:36;13.10;99.90
25154;DHT22;47555;51.038;6.280;2022-10-23T05:25:05;13.10;99.90
25154;DHT22;47555;51.038;6.280;2022-10-23T05:27:32;13.10;99.90
25154;DHT22;47555;51.038;6.280;2022-10-23T05:29:58;13.10;99.90
25154;DHT22;47555;51.038;6.280;2022-10-23T05:32:25;13.00;99.90
25154;DHT22;47555;51.038;6.280;2022-10-23T05:34:51;13.10;99.90
25154;DHT22;47555;51.038;6.280;2022-10-23T05:37:18;13.10;99.90
25154;DHT22;47555;51.038;6.280;2022-10-23T05:39:43;13.10;99.90
25154;DHT22;47555;51.038;6.280;2022-10-23T05:42:09;13.00;99.90
25154;DHT22;47555;51.038;6.280;2022-10-23T05:44:34;13.00;99.90
25154;DHT22;47555;51.038;6.280;2022-10-23T05:47:13;13.00;99.90
25154;DHT22;47555;51.038;6.280;2022-10-23T05:49:38;13.00;99.90
25154;DHT22;47555;51.038;6.280;2022-10-23T05:52:04;13.00;99.90
25154;DHT22;47555;51.038;6.280;2022-10-23T05:54:30;13.00;99.90
25154;DHT22;47555;51.038;6.280;2022-10-23T05:56:55;13.00;99.90
25154;DHT22;47555;51.038;6.280;2022-10-23T05:59:21;13.00;99.90
25154;DHT22;47555;51.038;6.280;2022-10-23T06:01:47;12.90;99.90
25154;DHT22;47555;51.038;6.280;2022-10-23T06:04:12;12.90;99.90
25154;DHT22;47555;51.038;6.280;2022-10-23T06:06:38;12.90;99.90
25154;DHT22;47555;51.038;6.280;2022-10-23T06:09:04;12.90;99.90
25154;DHT22;47555;51.038;6.280;2022-10-23T06:11:29;12.90;99.90
25154;DHT22;47555;51.038;6.280;2022-10-23T06:13:55;12.90;99.90
25154;DHT22;47555;51.038;6.280;2022-10-23T06:16:23;13.00;99.90
25154;DHT22;47555;51.038;6.280;2022-10-23T06:18:51;13.00;99.90
25154;DHT22;47555;51.038;6.280;2022-10-23T06:21:17;13.00;99.90
25154;DHT22;47555;51.038;6.280;2022-10-23T06:23:44;13.00;99.90
25154;DHT22;47555;51.038;6.280;2022-10-23T06:26:12;13.00;99.90
25154;DHT22;47555;51.038;6.280;2022-10-23T06:28:38;13.00;99.90
25154;DHT22;47555;51.038;6.280;2022-10-23T06:31:08;13.00;99.90
25154;DHT22;47555;51.038;6.280;2022-10-23T06:33:34;13.00;99.90
25154;DHT22;47555;51.038;6.280;2022-10-23T06:36:00;13.00;99.90
25154;DHT22;47555;51.038;6.280;2022-10-23T06:38:29;13.00;99.90
25154;DHT22;47555;51.038;6.280;2022-10-23T06:41:01;13.00;99.90
25154;DHT22;47555;51.038;6.280;2022-10-23T06:43:27;13.10;99.90
25154;DHT22;47555;51.038;6.280;2022-10-23T06:45:52;13.20;99.90
25154;DHT22;47555;51.038;6.280;2022-10-23T06:48:18;13.00;99.90
25154;DHT22;47555;51.038;6.280;2022-10-23T06:50:44;13.20;99.90
25154;DHT22;47555;51.038;6.280;2022-10-23T06:53:10;13.30;99.90
25154;DHT22;47555;51.038;6.280;2022-10-23T06:55:39;13.30;99.90
25154;DHT22;47555;51.038;6.280;2022-10-23T06:58:07;13.40;99.90
25154;DHT22;47555;51.038;6.280;2022-10-23T07:00:36;13.40;99.90
25154;DHT22;47555;51.038;6.280;2022-10-23T07:03:03;13.40;99.90
25154;DHT22;47555;51.038;6.280;2022-10-23T07:05:28;13.40;99.90
25154;DHT22;47555;51.038;6.280;2022-10-23T07:07:54;13.40;99.90
25154;DHT22;47555;51.038;6.280;2022-10-23T07:10:20;13.40;99.90
25154;DHT22;47555;51.038;6.280;2022-10-23T07:12:46;13.40;99.90
25154;DHT22;47555;51.038;6.280;2022-10-23T07:15:13;13.40;99.90
25154;DHT22;47555;51.038;6.280;2022-10-23T07:17:39;13.50;99.90
25154;DHT22;47555;51.038;6.280;2022-10-23T07:20:05;13.50;99.90
25154;DHT22;47555;51.038;6.280;2022-10-23T07:22:30;13.50;99.90
25154;DHT22;47555;51.038;6.280;2022-10-23T07:24:56;13.60;99.90
25154;DHT22;47555;51.038;6.280;2022-10-23T07:27:21;13.70;99.90
25154;DHT22;47555;51.038;6.280;2022-10-23T07:29:51;13.80;99.90
25154;DHT22;47555;51.038;6.280;2022-10-23T07:32:17;13.80;99.90
25154;DHT22;47555;51.038;6.280;2022-10-23T07:34:43;13.90;99.90
25154;DHT22;47555;51.038;6.280;2022-10-23T07:37:09;13.90;99.90
25154;DHT22;47555;51.038;6.280;2022-10-23T07:39:34;14.00;99.90
25154;DHT22;47555;51.038;6.280;2022-10-23T07:42:00;14.10;99.90
25154;DHT22;47555;51.038;6.280;2022-10-23T07:44:26;14.20;99.90
25154;DHT22;47555;51.038;6.280;2022-10-23T07:46:51;14.30;99.90
25154;DHT22;47555;51.038;6.280;2022-10-23T07:49:17;14.40;99.90
25154;DHT22;47555;51.038;6.280;2022-10-23T07:51:42;14.60;99.90
25154;DHT22;47555;51.038;6.280;2022-10-23T07:54:10;14.70;99.90
25154;DHT22;47555;51.038;6.280;2022-10-23T07:56:36;14.90;99.90
25154;DHT22;47555;51.038;6.280;2022-10-23T07:59:02;15.00;99.90
25154;DHT22;47555;51.038;6.280;2022-10-23T08:01:31;15.10;99.90
25154;DHT22;47555;51.038;6.280;2022-10-23T08:03:57;15.20;99.90
25154;DHT22;47555;51.038;6.280;2022-10-23T08:06:22;15.30;99.90
25154;DHT22;47555;51.038;6.280;2022-10-23T08:08:48;15.30;99.90
25154;DHT22;47555;51.038;6.280;2022-10-23T08:11:15;15.40;99.90
25154;DHT22;47555;51.038;6.280;2022-10-23T08:13:41;15.50;99.90
25154;DHT22;47555;51.038;6.280;2022-10-23T08:16:08;15.40;99.90
25154;DHT22;47555;51.038;6.280;2022-10-23T08:18:34;15.50;99.90
25154;DHT22;47555;51.038;6.280;2022-10-23T08:21:01;15.40;99.90
25154;DHT22;47555;51.038;6.280;2022-10-23T08:23:28;15.50;99.90
25154;DHT22;47555;51.038;6.280;2022-10-23T08:25:58;15.50;99.90
25154;DHT22;47555;51.038;6.280;2022-10-23T08:28:25;15.50;99.90
25154;DHT22;47555;51.038;6.280;2022-10-23T08:30:50;15.60;99.90
25154;DHT22;47555;51.038;6.280;2022-10-23T08:33:16;15.70;99.90
25154;DHT22;47555;51.038;6.280;2022-10-23T08:35:41;15.80;99.90
25154;DHT22;47555;51.038;6.280;2022-10-23T08:38:07;15.90;99.90
25154;DHT22;47555;51.038;6.280;2022-10-23T08:40:34;16.00;99.90
25154;DHT22;47555;51.038;6.280;2022-10-23T08:48:29;16.30;99.90
25154;DHT22;47555;51.038;6.280;2022-10-23T08:51:04;16.30;99.90
25154;DHT22;47555;51.038;6.280;2022-10-23T08:53:39;16.40;99.90
25154;DHT22;47555;51.038;6.280;2022-10-23T08:58:56;16.40;99.90
25154;DHT22;47555;51.038;6.280;2022-10-23T09:01:39;16.60;99.90
25154;DHT22;47555;51.038;6.280;2022-10-23T09:04:09;16.70;99.90
25154;DHT22;47555;51.038;6.280;2022-10-23T09:19:43;16.50;99.90
25154;DHT22;47555;51.038;6.280;2022-10-23T09:22:10;16.50;99.90
25154;DHT22;47555;51.038;6.280;2022-10-23T09:24:36;16.50;99.90
25154;DHT22;47555;51.038;6.280;2022-10-23T09:27:01;16.60;99.90
25154;DHT22;47555;51.038;6.280;2022-10-23T09:29:30;16.60;99.90
25154;DHT22;47555;51.038;6.280;2022-10-23T09:32:04;16.60;99.90
25154;DHT22;47555;51.038;6.280;2022-10-23T09:34:33;16.60;99.90
25154;DHT22;47555;51.038;6.280;2022-10-23T09:37:03;16.60;99.90
25154;DHT22;47555;51.038;6.280;2022-10-23T09:39:41;16.60;99.90
25154;DHT22;47555;51.038;6.280;2022-10-23T09:42:21;16.60;99.90
25154;DHT22;47555;51.038;6.280;2022-10-23T09:44:49;16.60;99.90
25154;DHT22;47555;51.038;6.280;2022-10-23T09:47:18;16.60;99.90
25154;DHT22;47555;51.038;6.280;2022-10-23T09:49:53;16.60;99.90
25154;DHT22;47555;51.038;6.280;2022-10-23T09:52:35;16.60;99.90
25154;DHT22;47555;51.038;6.280;2022-10-23T09:55:13;16.60;99.90
25154;DHT22;47555;51.038;6.280;2022-10-23T09:57:43;16.70;99.90
25154;DHT22;47555;51.038;6.280;2022-10-23T10:00:17;16.70;99.90
25154;DHT22;47555;51.038;6.280;2022-10-23T10:02:57;16.70;99.90
25154;DHT22;47555;51.038;6.280;2022-10-23T10:10:56;16.60;99.90
25154;DHT22;47555;51.038;6.280;2022-10-23T10:16:02;16.60;99.90
25154;DHT22;47555;51.038;6.280;2022-10-23T10:18:40;16.60;99.90
25154;DHT22;47555;51.038;6.280;2022-10-23T10:27:02;16.60;99.90
25154;DHT22;47555;51.038;6.280;2022-10-23T10:32:53;16.70;99.90
25154;DHT22;47555;51.038;6.280;2022-10-23T10:38:42;16.80;99.90
25154;DHT22;47555;51.038;6.280;2022-10-23T10:41:29;16.80;99.90
25154;DHT22;47555;51.038;6.280;2022-10-23T10:46:38;16.80;99.90
25154;DHT22;47555;51.038;6.280;2022-10-23T10:52:05;16.80;99.90
25154;DHT22;47555;51.038;6.280;2022-10-23T10:57:41;16.70;99.90
25154;DHT22;47555;51.038;6.280;2022-10-23T11:00:17;16.70;99.90
25154;DHT22;47555;51.038;6.280;2022-10-23T11:02:56;16.70;99.90
25154;DHT22;47555;51.038;6.280;2022-10-23T11:05:44;16.70;99.90
25154;DHT22;47555;51.038;6.280;2022-10-23T11:08:19;16.70;99.90
25154;DHT22;47555;51.038;6.280;2022-10-23T11:10:55;16.70;99.90
25154;DHT22;47555;51.038;6.280;2022-10-23T11:16:18;16.70;99.90
25154;DHT22;47555;51.038;6.280;2022-10-23T11:19:34;16.80;99.90
25154;DHT22;47555;51.038;6.280;2022-10-23T11:26:56;17.00;99.90
25154;DHT22;47555;51.038;6.280;2022-10-23T11:32:20;17.40;99.90
25154;DHT22;47555;51.038;6.280;2022-10-23T11:35:09;17.50;99.90
25154;DHT22;47555;51.038;6.280;2022-10-23T11:37:38;17.70;99.90
25154;DHT22;47555;51.038;6.280;2022-10-23T11:45:34;18.10;99.90
25154;DHT22;47555;51.038;6.280;2022-10-23T11:50:49;18.30;99.90
25154;DHT22;47555;51.038;6.280;2022-10-23T11:56:22;18.60;99.90
25154;DHT22;47555;51.038;6.280;2022-10-23T12:01:41;18.70;99.90
25154;DHT22;47555;51.038;6.280;2022-10-23T12:09:42;19.00;99.90
25154;DHT22;47555;51.038;6.280;2022-10-23T12:14:43;19.00;99.90
25154;DHT22;47555;51.038;6.280;2022-10-23T12:22:14;18.90;99.90
25154;DHT22;47555;51.038;6.280;2022-10-23T12:30:11;18.80;99.90
25154;DHT22;47555;51.038;6.280;2022-10-23T12:32:48;18.80;99.90
25154;DHT22;47555;51.038;6.280;2022-10-23T12:38:15;18.80;99.90
25154;DHT22;47555;51.038;6.280;2022-10-23T12:40:50;18.80;99.90
25154;DHT22;47555;51.038;6.280;2022-10-23T12:45:51;18.80;99.90
25154;DHT22;47555;51.038;6.280;2022-10-23T12:48:19;18.80;99.90
25154;DHT22;47555;51.038;6.280;2022-10-23T12:50:48;18.80;99.90
25154;DHT22;47555;51.038;6.280;2022-10-23T12:53:19;18.80;99.90
25154;DHT22;47555;51.038;6.280;2022-10-23T12:55:57;18.80;99.90
25154;DHT22;47555;51.038;6.280;2022-10-23T12:58:31;18.80;99.90
25154;DHT22;47555;51.038;6.280;2022-10-23T13:01:00;18.80;99.90
25154;DHT22;47555;51.038;6.280;2022-10-23T13:03:28;18.80;99.90
25154;DHT22;47555;51.038;6.280;2022-10-23T13:05:56;18.90;99.90
25154;DHT22;47555;51.038;6.280;2022-10-23T13:08:43;18.90;99.90
25154;DHT22;47555;51.038;6.280;2022-10-23T13:11:14;18.90;99.90
25154;DHT22;47555;51.038;6.280;2022-10-23T13:13:40;18.90;99.90
25154;DHT22;47555;51.038;6.280;2022-10-23T13:16:14;18.80;99.90
25154;DHT22;47555;51.038;6.280;2022-10-23T13:18:40;18.90;99.90
25154;DHT22;47555;51.038;6.280;2022-10-23T13:21:14;18.90;99.90
25154;DHT22;47555;51.038;6.280;2022-10-23T13:23:40;18.90;99.90
25154;DHT22;47555;51.038;6.280;2022-10-23T13:26:30;18.90;99.90
25154;DHT22;47555;51.038;6.280;2022-10-23T13:28:56;18.90;99.90
25154;DHT22;47555;51.038;6.280;2022-10-23T13:31:25;18.90;99.90
25154;DHT22;47555;51.038;6.280;2022-10-23T13:34:05;18.90;99.90
25154;DHT22;47555;51.038;6.280;2022-10-23T13:36:35;19.00;99.90
25154;DHT22;47555;51.038;6.280;2022-10-23T13:39:12;18.90;99.90
25154;DHT22;47555;51.038;6.280;2022-10-23T13:44:05;19.00;99.90
25154;DHT22;47555;51.038;6.280;2022-10-23T13:46:31;19.00;99.90
25154;DHT22;47555;51.038;6.280;2022-10-23T13:48:57;19.00;99.90
25154;DHT22;47555;51.038;6.280;2022-10-23T13:51:25;19.00;99.90
25154;DHT22;47555;51.038;6.280;2022-10-23T13:53:52;19.00;99.90
25154;DHT22;47555;51.038;6.280;2022-10-23T13:56:19;18.90;99.90
25154;DHT22;47555;51.038;6.280;2022-10-23T13:58:45;18.90;99.90
25154;DHT22;47555;51.038;6.280;2022-10-23T14:01:28;18.90;99.90
25154;DHT22;47555;51.038;6.280;2022-10-23T14:03:55;18.90;99.90
25154;DHT22;47555;51.038;6.280;2022-10-23T14:06:21;18.90;99.90
25154;DHT22;47555;51.038;6.280;2022-10-23T14:08:47;18.90;99.90
25154;DHT22;47555;51.038;6.280;2022-10-23T14:11:14;18.90;99.90
25154;DHT22;47555;51.038;6.280;2022-10-23T14:13:40;18.90;99.90
25154;DHT22;47555;51.038;6.280;2022-10-23T14:16:08;18.80;99.90
25154;DHT22;47555;51.038;6.280;2022-10-23T14:18:34;18.80;99.90
25154;DHT22;47555;51.038;6.280;2022-10-23T14:21:01;18.90;99.90
25154;DHT22;47555;51.038;6.280;2022-10-23T14:23:26;18.90;99.90
25154;DHT22;47555;51.038;6.280;2022-10-23T14:25:52;18.90;99.90
25154;DHT22;47555;51.038;6.280;2022-10-23T14:28:18;18.90;99.90
25154;DHT22;47555;51.038;6.280;2022-10-23T14:30:43;18.90;99.90
25154;DHT22;47555;51.038;6.280;2022-10-23T14:33:09;18.90;99.90
25154;DHT22;47555;51.038;6.280;2022-10-23T14:35:39;18.90;99.90
25154;DHT22;47555;51.038;6.280;2022-10-23T14:38:05;18.90;99.90
25154;DHT22;47555;51.038;6.280;2022-10-23T14:40:30;18.90;99.90
25154;DHT22;47555;51.038;6.280;2022-10-23T14:42:56;18.90;99.90
25154;DHT22;47555;51.038;6.280;2022-10-23T14:45:21;18.90;99.90
25154;DHT22;47555;51.038;6.280;2022-10-23T14:47:48;18.90;99.90
25154;DHT22;47555;51.038;6.280;2022-10-23T14:50:14;18.80;99.90
25154;DHT22;47555;51.038;6.280;2022-10-23T14:52:39;18.80;99.90
25154;DHT22;47555;51.038;6.280;2022-10-23T14:55:05;18.70;99.90
25154;DHT22;47555;51.038;6.280;2022-10-23T14:57:31;18.70;99.90
25154;DHT22;47555;51.038;6.280;2022-10-23T14:59:56;18.60;99.90
25154;DHT22;47555;51.038;6.280;2022-10-23T15:02:22;18.60;99.90
25154;DHT22;47555;51.038;6.280;2022-10-23T15:04:50;18.50;99.90
25154;DHT22;47555;51.038;6.280;2022-10-23T15:07:16;18.50;99.90
25154;DHT22;47555;51.038;6.280;2022-10-23T15:09:41;18.40;99.90
25154;DHT22;47555;51.038;6.280;2022-10-23T15:12:07;18.40;99.90
25154;DHT22;47555;51.038;6.280;2022-10-23T15:14:33;18.40;99.90
25154;DHT22;47555;51.038;6.280;2022-10-23T15:16:58;18.50;99.90
25154;DHT22;47555;51.038;6.280;2022-10-23T15:19:24;18.60;99.90
25154;DHT22;47555;51.038;6.280;2022-10-23T15:21:50;18.60;99.90
25154;DHT22;47555;51.038;6.280;2022-10-23T15:24:17;18.60;99.90
25154;DHT22;47555;51.038;6.280;2022-10-23T15:26:43;18.60;99.90
25154;DHT22;47555;51.038;6.280;2022-10-23T15:29:09;18.60;99.90
25154;DHT22;47555;51.038;6.280;2022-10-23T15:34:06;18.50;99.90
25154;DHT22;47555;51.038;6.280;2022-10-23T15:36:32;18.50;99.90
25154;DHT22;47555;51.038;6.280;2022-10-23T15:38:57;18.40;99.90
25154;DHT22;47555;51.038;6.280;2022-10-23T15:41:28;18.40;99.90
25154;DHT22;47555;51.038;6.280;2022-10-23T15:43:54;18.30;99.90
25154;DHT22;47555;51.038;6.280;2022-10-23T15:46:20;18.30;99.90
25154;DHT22;47555;51.038;6.280;2022-10-23T15:48:45;18.20;99.90
25154;DHT22;47555;51.038;6.280;2022-10-23T15:51:11;18.10;99.90
25154;DHT22;47555;51.038;6.280;2022-10-23T15:53:37;18.00;99.90
25154;DHT22;47555;51.038;6.280;2022-10-23T15:56:03;18.00;99.90
25154;DHT22;47555;51.038;6.280;2022-10-23T15:58:29;18.00;99.90
25154;DHT22;47555;51.038;6.280;2022-10-23T16:00:54;18.10;99.90
25154;DHT22;47555;51.038;6.280;2022-10-23T16:03:20;18.10;99.90
25154;DHT22;47555;51.038;6.280;2022-10-23T16:05:45;18.10;99.90
25154;DHT22;47555;51.038;6.280;2022-10-23T16:08:11;18.10;99.90
25154;DHT22;47555;51.038;6.280;2022-10-23T16:10:41;18.10;99.90
25154;DHT22;47555;51.038;6.280;2022-10-23T16:13:07;18.10;99.90
25154;DHT22;47555;51.038;6.280;2022-10-23T16:15:36;18.10;99.90
25154;DHT22;47555;51.038;6.280;2022-10-23T16:18:02;18.10;99.90
25154;DHT22;47555;51.038;6.280;2022-10-23T16:20:28;18.00;99.90
25154;DHT22;47555;51.038;6.280;2022-10-23T16:22:53;18.00;99.90
25154;DHT22;47555;51.038;6.280;2022-10-23T16:25:19;18.00;99.90
25154;DHT22;47555;51.038;6.280;2022-10-23T16:27:45;18.00;99.90
25154;DHT22;47555;51.038;6.280;2022-10-23T16:30:11;17.90;99.90
25154;DHT22;47555;51.038;6.280;2022-10-23T16:32:41;17.90;99.90
25154;DHT22;47555;51.038;6.280;2022-10-23T16:35:08;17.90;99.90
25154;DHT22;47555;51.038;6.280;2022-10-23T16:37:33;17.90;99.90
25154;DHT22;47555;51.038;6.280;2022-10-23T16:39:59;17.80;99.90
25154;DHT22;47555;51.038;6.280;2022-10-23T16:42:26;17.80;99.90
25154;DHT22;47555;51.038;6.280;2022-10-23T16:44:52;17.80;99.90
25154;DHT22;47555;51.038;6.280;2022-10-23T16:47:17;17.70;99.90
25154;DHT22;47555;51.038;6.280;2022-10-23T16:49:43;17.70;99.90
25154;DHT22;47555;51.038;6.280;2022-10-23T16:52:09;17.70;99.90
25154;DHT22;47555;51.038;6.280;2022-10-23T16:54:34;17.60;99.90
25154;DHT22;47555;51.038;6.280;2022-10-23T16:57:00;17.60;99.90
25154;DHT22;47555;51.038;6.280;2022-10-23T16:59:25;17.50;99.90
25154;DHT22;47555;51.038;6.280;2022-10-23T17:01:51;17.60;99.90
25154;DHT22;47555;51.038;6.280;2022-10-23T17:04:17;17.60;99.90
25154;DHT22;47555;51.038;6.280;2022-10-23T17:06:43;17.60;99.90
25154;DHT22;47555;51.038;6.280;2022-10-23T17:09:08;17.60;99.90
25154;DHT22;47555;51.038;6.280;2022-10-23T17:11:36;17.60;99.90
25154;DHT22;47555;51.038;6.280;2022-10-23T17:14:26;17.50;99.90
25154;DHT22;47555;51.038;6.280;2022-10-23T17:16:55;17.50;99.90
25154;DHT22;47555;51.038;6.280;2022-10-23T17:19:23;17.60;99.90
25154;DHT22;47555;51.038;6.280;2022-10-23T17:21:49;17.50;99.90
25154;DHT22;47555;51.038;6.280;2022-10-23T17:24:15;17.60;99.90
25154;DHT22;47555;51.038;6.280;2022-10-23T17:26:41;17.50;99.90
25154;DHT22;47555;51.038;6.280;2022-10-23T17:29:08;17.50;99.90
25154;DHT22;47555;51.038;6.280;2022-10-23T17:31:37;17.50;99.90
25154;DHT22;47555;51.038;6.280;2022-10-23T17:34:05;17.60;99.90
25154;DHT22;47555;51.038;6.280;2022-10-23T17:36:34;17.60;99.90
25154;DHT22;47555;51.038;6.280;2022-10-23T17:39:00;17.70;99.90
25154;DHT22;47555;51.038;6.280;2022-10-23T17:41:26;17.70;99.90
25154;DHT22;47555;51.038;6.280;2022-10-23T17:43:56;17.80;99.90